88FL weather

Sailfish Point Heliport
Sewall's Point, Florida, United States

Public forecast

Using degrees Fahrenheit for public forecast. Weather courtesy of forecast.io.

Closest aviation weather report (METAR) to Sailfish Point Heliport

Closest report is Witham Field, 3.5 nm (6.5 km) WNW. Retrieved 2019/10/17 20:47 UTC (50 minutes ago):

KSUA 172047Z 06007KT 7SM SCT035 29/22 A2988

Closest aviation forecast (TAF) to Sailfish Point Heliport

Closest forecast is Witham Field, 3.5 nm (6.5 km) WNW. Retrieved 2019/10/17 18:36 UTC (3 hours ago):

TAF KSUA 171735Z 1718/1818 33006KT P6SM SCT020 BKN100 FM180000 05003KT P6SM VCSH SCT030 BKN200 FM181300 09008KT P6SM VCSH SCT040 BKN080